createdAt,value
2022-08-25T00:02:01.955Z,3.20
2022-08-25T00:05:06.611Z,3.20
2022-08-25T00:08:11.117Z,3.50
2022-08-25T00:11:21.314Z,3.80
2022-08-25T00:14:28.106Z,3.40
2022-08-25T00:17:31.092Z,3.20
2022-08-25T00:20:34.064Z,3.20
2022-08-25T00:23:36.946Z,3.50
2022-08-25T00:26:43.604Z,3.60
2022-08-25T00:29:46.532Z,3.50
2022-08-25T00:32:56.859Z,3.50
2022-08-25T00:36:01.209Z,3.70
2022-08-25T00:39:06.177Z,3.80
2022-08-25T00:42:15.754Z,3.60
2022-08-25T00:45:19.376Z,3.40
2022-08-25T00:48:22.260Z,3.50
2022-08-25T00:51:35.057Z,3.40
2022-08-25T00:55:04.348Z,3.60
2022-08-25T00:58:22.056Z,3.40
2022-08-25T01:01:26.127Z,3.60
2022-08-25T01:04:29.956Z,3.10
2022-08-25T01:07:33.483Z,3.30
2022-08-25T01:10:38.818Z,3.50
2022-08-25T01:13:45.503Z,3.80
2022-08-25T01:16:51.038Z,4.00
2022-08-25T01:19:56.548Z,4.10
2022-08-25T01:23:00.883Z,3.90
2022-08-25T01:26:05.697Z,4.00
2022-08-25T01:29:21.764Z,4.20
2022-08-25T01:32:25.110Z,3.60
2022-08-25T01:35:27.993Z,4.60
2022-08-25T01:38:30.957Z,3.40
2022-08-25T01:41:41.467Z,3.80
2022-08-25T01:44:46.122Z,3.70
2022-08-25T01:47:49.101Z,4.50
2022-08-25T01:50:51.963Z,4.30
2022-08-25T01:53:54.849Z,4.80
2022-08-25T01:56:58.447Z,4.00
2022-08-25T02:00:01.726Z,4.70
2022-08-25T02:03:18.530Z,4.50
2022-08-25T02:06:29.900Z,4.30
2022-08-25T02:09:34.439Z,4.60
2022-08-25T02:12:37.761Z,4.40
2022-08-25T02:15:48.059Z,4.50
2022-08-25T02:18:53.105Z,4.20
2022-08-25T02:21:56.105Z,4.40
2022-08-25T02:24:59.881Z,3.80
2022-08-25T02:28:03.124Z,3.80
2022-08-25T02:31:06.265Z,4.60
2022-08-25T02:34:10.748Z,4.90
2022-08-25T02:37:14.187Z,5.10
2022-08-25T02:40:17.797Z,5.00
2022-08-25T02:43:21.160Z,4.50
2022-08-25T02:46:25.107Z,4.50
2022-08-25T02:49:28.419Z,4.60
2022-08-25T02:52:31.888Z,4.40
2022-08-25T02:55:34.843Z,4.60
2022-08-25T02:58:38.516Z,4.30
2022-08-25T03:01:41.570Z,4.90
2022-08-25T03:04:44.503Z,5.60
2022-08-25T03:07:47.695Z,5.40
2022-08-25T03:10:52.110Z,5.40
2022-08-25T03:13:56.537Z,5.00
2022-08-25T03:16:59.568Z,4.70
2022-08-25T03:20:05.067Z,5.20
2022-08-25T03:23:09.054Z,5.50
2022-08-25T03:26:30.548Z,5.30
2022-08-25T03:29:33.897Z,5.10
2022-08-25T03:32:37.031Z,5.20
2022-08-25T03:35:40.761Z,5.50
2022-08-25T03:38:43.619Z,4.70
2022-08-25T03:41:47.623Z,5.10
2022-08-25T03:44:50.633Z,5.50
2022-08-25T03:47:54.242Z,5.30
2022-08-25T03:50:57.158Z,6.30
2022-08-25T03:54:01.391Z,4.20
2022-08-25T03:57:05.830Z,4.40
2022-08-25T04:00:12.233Z,4.20
2022-08-25T04:03:15.188Z,4.60
2022-08-25T04:06:19.916Z,4.30
2022-08-25T04:09:22.903Z,5.00
2022-08-25T04:12:25.996Z,5.00
2022-08-25T04:15:30.235Z,4.80
2022-08-25T04:18:34.386Z,4.80
2022-08-25T04:21:39.058Z,4.50
2022-08-25T04:24:41.954Z,5.00
2022-08-25T04:27:44.872Z,4.40
2022-08-25T04:30:51.864Z,5.60
2022-08-25T04:33:55.750Z,5.40
2022-08-25T04:37:01.323Z,5.60
2022-08-25T04:40:05.511Z,5.30
2022-08-25T04:43:08.486Z,6.20
2022-08-25T04:46:20.035Z,5.90
2022-08-25T04:49:23.309Z,5.80
2022-08-25T04:52:26.209Z,6.00
2022-08-25T04:55:29.181Z,6.00
2022-08-25T04:58:32.106Z,5.90
2022-08-25T05:01:35.697Z,5.10
2022-08-25T05:04:39.475Z,5.20
2022-08-25T05:07:42.371Z,5.40
2022-08-25T05:10:45.239Z,6.20
2022-08-25T05:13:51.618Z,5.60
2022-08-25T05:16:55.690Z,5.60
2022-08-25T05:19:58.655Z,5.50
2022-08-25T05:23:01.538Z,5.60
2022-08-25T05:26:10.954Z,5.40
2022-08-25T05:29:16.039Z,5.70
2022-08-25T05:32:18.918Z,5.90
2022-08-25T05:35:21.808Z,6.50
2022-08-25T05:38:25.050Z,5.70
2022-08-25T05:41:30.420Z,5.80
2022-08-25T05:44:33.334Z,5.60
2022-08-25T05:47:36.210Z,6.20
2022-08-25T05:50:39.628Z,5.80
2022-08-25T05:53:46.272Z,6.80
2022-08-25T05:56:49.714Z,6.50
2022-08-25T05:59:52.608Z,7.10
2022-08-25T06:02:55.698Z,6.60
2022-08-25T06:06:07.259Z,6.20
2022-08-25T06:09:11.277Z,6.80
2022-08-25T06:12:14.671Z,6.60
2022-08-25T06:15:21.279Z,6.20
2022-08-25T06:18:24.182Z,5.60
2022-08-25T06:21:27.465Z,6.60
2022-08-25T06:24:30.350Z,5.70
2022-08-25T06:27:34.443Z,6.50
2022-08-25T06:30:39.321Z,7.10
2022-08-25T06:33:42.521Z,7.00
2022-08-25T06:36:45.435Z,6.40
2022-08-25T06:39:52.151Z,5.20
2022-08-25T06:42:55.153Z,6.00
2022-08-25T06:45:59.191Z,5.50
2022-08-25T06:49:08.185Z,5.70
2022-08-25T06:52:12.977Z,5.30
2022-08-25T06:55:16.134Z,5.60
2022-08-25T06:58:19.316Z,7.80
2022-08-25T07:01:27.156Z,6.70
2022-08-25T07:04:30.612Z,7.20
2022-08-25T07:07:43.016Z,6.60
2022-08-25T07:10:48.291Z,5.20
2022-08-25T07:13:51.421Z,5.50
2022-08-25T07:16:54.399Z,4.70
2022-08-25T07:19:57.789Z,6.90
2022-08-25T07:23:00.825Z,5.20
2022-08-25T07:26:35.748Z,5.50
2022-08-25T07:29:36.979Z,5.60
2022-08-25T07:32:45.641Z,5.00
2022-08-25T07:35:48.712Z,4.50
2022-08-25T07:38:53.429Z,4.70
2022-08-25T07:41:58.548Z,5.20
2022-08-25T07:45:02.108Z,5.60
2022-08-25T07:48:19.849Z,5.60
2022-08-25T07:51:23.187Z,5.80
2022-08-25T07:54:34.044Z,4.90
2022-08-25T07:57:42.344Z,6.80
2022-08-25T08:00:48.021Z,7.80
2022-08-25T08:03:51.739Z,7.20
2022-08-25T08:06:54.838Z,6.10
2022-08-25T08:10:27.947Z,6.50
2022-08-25T08:13:21.440Z,7.50
2022-08-25T08:16:30.938Z,7.90
2022-08-25T08:19:37.050Z,10.30
2022-08-25T08:22:42.652Z,15.90
2022-08-25T08:25:45.658Z,15.00
2022-08-25T08:28:52.057Z,13.20
2022-08-25T08:31:55.293Z,16.30
2022-08-25T08:34:58.644Z,10.40
2022-08-25T08:38:01.750Z,9.30
2022-08-25T08:45:27.370Z,7.80
2022-08-25T08:48:42.587Z,7.40
2022-08-25T08:51:56.140Z,8.10
2022-08-25T08:55:05.534Z,9.40
2022-08-25T08:58:21.122Z,11.60
2022-08-25T09:01:34.838Z,12.80
2022-08-25T09:04:46.879Z,13.00
2022-08-25T09:07:59.968Z,13.60
2022-08-25T09:11:41.050Z,13.10
2022-08-25T09:14:57.353Z,15.00
2022-08-25T09:18:12.407Z,16.00
2022-08-25T09:21:31.556Z,13.80
2022-08-25T09:24:42.969Z,12.70
2022-08-25T09:28:07.453Z,10.80
2022-08-25T09:31:19.881Z,9.00
2022-08-25T09:34:28.499Z,10.40
2022-08-25T09:37:31.635Z,9.10
2022-08-25T09:40:39.081Z,10.00
2022-08-25T09:43:54.063Z,8.20
2022-08-25T09:47:21.922Z,9.10
2022-08-25T09:50:25.349Z,7.50
2022-08-25T09:53:29.847Z,8.10
2022-08-25T09:56:58.463Z,8.30
2022-08-25T10:00:25.407Z,8.00
2022-08-25T10:03:29.640Z,7.40
2022-08-25T10:06:44.263Z,7.90
2022-08-25T10:09:56.103Z,7.20
2022-08-25T10:13:01.774Z,7.70
2022-08-25T10:16:24.829Z,7.70
2022-08-25T10:19:30.263Z,8.30
2022-08-25T10:22:34.444Z,7.50
2022-08-25T10:25:59.387Z,6.20
2022-08-25T10:29:16.822Z,6.10
2022-08-25T10:32:36.874Z,7.00
2022-08-25T10:35:54.980Z,6.40
2022-08-25T10:39:01.456Z,5.30
2022-08-25T10:42:29.512Z,6.40
2022-08-25T10:45:45.866Z,5.80
2022-08-25T10:48:58.127Z,6.50
2022-08-25T10:52:12.505Z,5.40
2022-08-25T10:56:07.110Z,5.40
2022-08-25T10:59:38.956Z,5.60
2022-08-25T11:03:13.548Z,5.10
2022-08-25T11:06:42.404Z,4.50
2022-08-25T11:09:49.823Z,5.10
2022-08-25T11:13:00.198Z,4.90
2022-08-25T11:16:18.912Z,5.30
2022-08-25T11:19:32.800Z,4.80
2022-08-25T11:22:43.894Z,5.50
2022-08-25T11:25:52.277Z,5.30
2022-08-25T11:29:11.982Z,3.90
2022-08-25T11:32:20.894Z,5.10
2022-08-25T11:35:31.462Z,5.00
2022-08-25T11:39:12.326Z,4.70
2022-08-25T11:42:48.061Z,5.50
2022-08-25T11:46:22.387Z,5.30
2022-08-25T11:50:00.599Z,4.80
2022-08-25T11:53:12.774Z,5.90
2022-08-25T11:56:40.202Z,4.70
2022-08-25T11:59:55.395Z,4.60
2022-08-25T12:03:01.552Z,4.80
2022-08-25T12:06:16.218Z,4.90
2022-08-25T12:09:21.382Z,4.80
2022-08-25T12:12:31.920Z,4.20
2022-08-25T12:15:58.002Z,5.40
2022-08-25T12:19:23.140Z,5.00
2022-08-25T12:22:27.144Z,5.10
2022-08-25T12:25:36.430Z,5.30
2022-08-25T12:28:56.919Z,5.50
2022-08-25T12:32:37.499Z,5.30
2022-08-25T12:36:01.512Z,5.10
2022-08-25T12:39:16.615Z,5.00
2022-08-25T12:42:29.574Z,5.40
2022-08-25T12:45:44.812Z,6.00
2022-08-25T12:48:57.992Z,4.70
2022-08-25T12:52:05.064Z,4.40
2022-08-25T12:55:12.182Z,5.00
2022-08-25T12:58:17.099Z,5.50
2022-08-25T13:01:36.052Z,5.50
2022-08-25T13:05:10.728Z,4.70
2022-08-25T13:08:51.727Z,4.80
2022-08-25T13:12:07.707Z,5.80
2022-08-25T13:15:33.295Z,4.50
2022-08-25T13:18:39.738Z,5.10
2022-08-25T13:21:43.766Z,4.40
2022-08-25T13:24:50.954Z,5.20
2022-08-25T13:27:58.384Z,4.10
2022-08-25T13:31:03.080Z,4.30
2022-08-25T13:34:19.423Z,4.80
2022-08-25T13:37:32.428Z,4.60
2022-08-25T13:40:36.633Z,4.50
2022-08-25T13:43:41.046Z,5.50
2022-08-25T13:46:45.886Z,4.70
2022-08-25T13:49:48.893Z,4.40
2022-08-25T13:53:02.961Z,5.10
2022-08-25T13:56:07.380Z,5.50
2022-08-25T13:59:34.363Z,5.10
2022-08-25T14:02:49.831Z,4.30
2022-08-25T14:06:07.926Z,4.10
2022-08-25T14:09:18.137Z,5.50
2022-08-25T14:12:44.727Z,4.30
2022-08-25T14:15:48.389Z,4.80
2022-08-25T14:18:58.614Z,4.50
2022-08-25T14:22:03.044Z,4.20
2022-08-25T14:25:06.604Z,5.20
2022-08-25T14:28:16.734Z,4.60
2022-08-25T14:31:30.182Z,4.70
2022-08-25T14:34:36.958Z,5.10
2022-08-25T14:37:40.048Z,4.80
2022-08-25T14:40:44.745Z,5.10
2022-08-25T14:43:48.051Z,4.60
2022-08-25T14:46:54.701Z,4.20
2022-08-25T14:49:57.971Z,4.90
2022-08-25T14:53:02.119Z,5.20
2022-08-25T14:56:08.420Z,4.50
2022-08-25T14:59:13.565Z,4.70
2022-08-25T15:02:20.107Z,4.50
2022-08-25T15:05:28.393Z,4.30
2022-08-25T15:08:50.674Z,4.60
2022-08-25T15:11:56.411Z,4.70
2022-08-25T15:15:01.806Z,4.80
2022-08-25T15:18:05.673Z,5.20
2022-08-25T15:21:09.358Z,4.80
2022-08-25T15:24:17.433Z,4.50
2022-08-25T15:27:21.958Z,4.20
2022-08-25T15:30:30.877Z,4.90
2022-08-25T15:33:34.160Z,4.60
2022-08-25T15:36:37.518Z,4.00
2022-08-25T15:39:43.409Z,4.80
2022-08-25T15:42:47.704Z,4.80
2022-08-25T15:45:50.917Z,4.00
2022-08-25T15:52:02.341Z,4.40
2022-08-25T15:55:05.739Z,4.40
2022-08-25T15:58:09.141Z,4.10
2022-08-25T16:01:14.202Z,4.20
2022-08-25T16:04:17.911Z,4.10
2022-08-25T16:07:21.271Z,4.60
2022-08-25T16:10:25.447Z,4.60
2022-08-25T16:13:28.407Z,3.80
2022-08-25T16:16:33.014Z,4.10
2022-08-25T16:19:38.285Z,4.00
2022-08-25T16:22:43.515Z,4.50
2022-08-25T16:25:48.379Z,3.80
2022-08-25T16:28:51.549Z,3.70
2022-08-25T16:31:55.126Z,3.80
2022-08-25T16:34:59.712Z,3.40
2022-08-25T16:38:04.561Z,4.10
2022-08-25T16:41:09.664Z,3.90
2022-08-25T16:44:12.634Z,4.10
2022-08-25T16:47:17.734Z,3.70
2022-08-25T16:50:24.090Z,3.90
2022-08-25T16:53:46.175Z,3.50
2022-08-25T16:56:54.983Z,3.80
2022-08-25T16:59:58.973Z,4.40
2022-08-25T17:03:06.734Z,3.80
2022-08-25T17:06:09.899Z,4.10
2022-08-25T17:09:17.392Z,3.70
2022-08-25T17:12:26.558Z,3.90
2022-08-25T17:15:29.466Z,4.50
2022-08-25T17:18:33.662Z,4.00
2022-08-25T17:21:40.508Z,4.30
2022-08-25T17:25:00.963Z,4.20
2022-08-25T17:28:05.754Z,4.00
2022-08-25T17:31:10.451Z,3.90
2022-08-25T17:34:16.146Z,4.00
2022-08-25T17:37:19.642Z,3.70
2022-08-25T17:40:23.503Z,3.90
2022-08-25T17:43:31.322Z,3.70
2022-08-25T17:46:34.321Z,4.10
2022-08-25T17:49:37.420Z,4.50
2022-08-25T17:52:40.551Z,4.10
2022-08-25T17:55:44.875Z,4.50
2022-08-25T17:58:48.551Z,4.60
2022-08-25T18:01:52.996Z,4.60
2022-08-25T18:04:58.540Z,4.80
2022-08-25T18:08:01.654Z,4.70
2022-08-25T18:11:08.514Z,4.50
2022-08-25T18:14:11.929Z,4.50
2022-08-25T18:17:14.842Z,4.90
2022-08-25T18:20:24.950Z,4.40
2022-08-25T18:23:28.734Z,5.20
2022-08-25T18:26:31.959Z,5.10
2022-08-25T18:29:34.879Z,4.90
2022-08-25T18:32:38.962Z,4.80
2022-08-25T18:35:43.384Z,4.50
2022-08-25T18:39:05.386Z,4.50
2022-08-25T18:42:08.537Z,4.60
2022-08-25T18:45:12.457Z,4.30
2022-08-25T18:48:20.150Z,4.70
2022-08-25T18:51:23.717Z,4.20
2022-08-25T18:54:26.682Z,4.60
2022-08-25T18:57:30.728Z,4.60
2022-08-25T19:00:34.328Z,4.40
2022-08-25T19:03:38.550Z,4.80
2022-08-25T19:06:43.813Z,4.90
2022-08-25T19:09:47.407Z,5.30
2022-08-25T19:12:54.285Z,4.70
2022-08-25T19:16:09.210Z,4.70
2022-08-25T19:19:13.753Z,4.40
2022-08-25T19:22:40.260Z,5.20
2022-08-25T19:25:42.252Z,5.10
2022-08-25T19:28:49.029Z,5.50
2022-08-25T19:31:52.360Z,5.70
2022-08-25T19:34:56.192Z,5.20
2022-08-25T19:38:00.431Z,5.60
2022-08-25T19:41:10.633Z,5.80
2022-08-25T19:44:18.236Z,5.50
2022-08-25T19:47:21.380Z,6.30
2022-08-25T19:50:24.744Z,7.60
2022-08-25T19:53:27.894Z,6.90
2022-08-25T19:56:32.736Z,8.00
2022-08-25T19:59:43.099Z,7.30
2022-08-25T20:02:47.608Z,6.80
2022-08-25T20:05:51.983Z,6.80
2022-08-25T20:09:03.734Z,6.30
2022-08-25T20:12:11.187Z,6.80
2022-08-25T20:15:16.665Z,6.50
2022-08-25T20:18:27.423Z,6.30
2022-08-25T20:21:32.967Z,7.10
2022-08-25T20:24:51.064Z,7.10
2022-08-25T20:28:06.901Z,6.40
2022-08-25T20:31:19.151Z,6.20
2022-08-25T20:34:29.988Z,6.90
2022-08-25T20:37:39.329Z,7.40
2022-08-25T20:40:45.695Z,7.10
2022-08-25T20:43:52.037Z,6.50
2022-08-25T20:47:00.241Z,6.40
2022-08-25T20:50:07.815Z,6.20
2022-08-25T20:53:14.463Z,6.60
2022-08-25T20:56:18.924Z,6.40
2022-08-25T20:59:28.102Z,6.80
2022-08-25T21:02:31.280Z,6.60
2022-08-25T21:05:38.291Z,7.00
2022-08-25T21:08:47.377Z,6.80
2022-08-25T21:11:53.333Z,6.80
2022-08-25T21:14:56.210Z,7.00
2022-08-25T21:18:00.099Z,7.30
2022-08-25T21:21:15.216Z,7.90
2022-08-25T21:24:21.223Z,7.50
2022-08-25T21:27:24.193Z,7.30
2022-08-25T21:30:28.508Z,6.80
2022-08-25T21:33:33.684Z,6.80
2022-08-25T21:36:37.044Z,6.80
2022-08-25T21:39:39.973Z,7.20
2022-08-25T21:42:44.204Z,7.20
2022-08-25T21:45:47.261Z,7.20
2022-08-25T21:48:50.872Z,6.60
2022-08-25T21:52:00.874Z,6.90
2022-08-25T21:55:15.807Z,6.50
2022-08-25T21:58:26.802Z,6.70
2022-08-25T22:01:31.922Z,7.00
2022-08-25T22:04:36.365Z,6.70
2022-08-25T22:07:42.282Z,6.30
2022-08-25T22:10:47.399Z,6.60
2022-08-25T22:13:53.002Z,6.30
2022-08-25T22:16:57.777Z,6.50
2022-08-25T22:20:01.734Z,6.70
2022-08-25T22:23:04.639Z,8.10
2022-08-25T22:26:07.670Z,7.20
2022-08-25T22:29:10.609Z,6.70
2022-08-25T22:32:14.051Z,7.20
2022-08-25T22:35:17.055Z,6.20
2022-08-25T22:38:21.318Z,6.10
2022-08-25T22:41:26.999Z,6.20
2022-08-25T22:44:31.381Z,6.40
2022-08-25T22:47:34.265Z,6.30
2022-08-25T22:50:37.591Z,6.40
2022-08-25T22:53:42.374Z,5.60
2022-08-25T22:56:45.825Z,6.20
2022-08-25T22:59:49.006Z,6.20
2022-08-25T23:02:53.440Z,6.90
2022-08-25T23:05:56.977Z,6.90
2022-08-25T23:09:00.130Z,6.00
2022-08-25T23:12:04.806Z,6.50
2022-08-25T23:15:12.498Z,6.30
2022-08-25T23:18:17.576Z,6.50
2022-08-25T23:21:41.231Z,7.00
2022-08-25T23:24:49.491Z,6.80
2022-08-25T23:27:52.534Z,6.70
2022-08-25T23:30:57.204Z,7.30
2022-08-25T23:34:02.773Z,7.10
2022-08-25T23:37:07.861Z,7.00
2022-08-25T23:40:11.988Z,6.90
2022-08-25T23:43:22.053Z,7.50
2022-08-25T23:46:29.593Z,7.00
2022-08-25T23:49:33.002Z,6.50
2022-08-25T23:52:36.445Z,6.60
2022-08-25T23:55:39.701Z,6.60
2022-08-25T23:58:56.027Z,6.40
